sensor_id;sensor_type;location;lat;lon;timestamp;temperature;humidity
71039;SHT30;58692;43.212;27.908;2023-05-19T00:01:27;16.55;72.39
71039;SHT30;58692;43.212;27.908;2023-05-19T00:03:55;16.51;72.37
71039;SHT30;58692;43.212;27.908;2023-05-19T00:06:24;16.49;72.52
71039;SHT30;58692;43.212;27.908;2023-05-19T00:08:55;16.51;72.51
71039;SHT30;58692;43.212;27.908;2023-05-19T00:11:21;16.45;72.74
71039;SHT30;58692;43.212;27.908;2023-05-19T00:13:47;16.41;72.63
71039;SHT30;58692;43.212;27.908;2023-05-19T00:16:14;16.41;72.39
71039;SHT30;58692;43.212;27.908;2023-05-19T00:18:39;16.42;72.29
71039;SHT30;58692;43.212;27.908;2023-05-19T00:21:06;16.40;72.54
71039;SHT30;58692;43.212;27.908;2023-05-19T00:23:31;16.38;72.64
71039;SHT30;58692;43.212;27.908;2023-05-19T00:25:57;16.35;72.52
71039;SHT30;58692;43.212;27.908;2023-05-19T00:28:22;16.32;72.28
71039;SHT30;58692;43.212;27.908;2023-05-19T00:30:49;16.32;72.15
71039;SHT30;58692;43.212;27.908;2023-05-19T00:33:15;16.31;72.07
71039;SHT30;58692;43.212;27.908;2023-05-19T00:35:40;16.32;72.23
71039;SHT30;58692;43.212;27.908;2023-05-19T00:38:06;16.38;72.04
71039;SHT30;58692;43.212;27.908;2023-05-19T00:40:34;16.34;72.25
71039;SHT30;58692;43.212;27.908;2023-05-19T00:43:00;16.32;72.07
71039;SHT30;58692;43.212;27.908;2023-05-19T00:45:26;16.31;72.32
71039;SHT30;58692;43.212;27.908;2023-05-19T00:47:52;16.29;72.60
71039;SHT30;58692;43.212;27.908;2023-05-19T00:50:17;16.22;72.69
71039;SHT30;58692;43.212;27.908;2023-05-19T00:52:43;16.24;72.62
71039;SHT30;58692;43.212;27.908;2023-05-19T00:55:08;16.24;72.66
71039;SHT30;58692;43.212;27.908;2023-05-19T00:57:35;16.27;72.65
71039;SHT30;58692;43.212;27.908;2023-05-19T01:00:00;16.25;72.34
71039;SHT30;58692;43.212;27.908;2023-05-19T01:02:26;16.27;72.08
71039;SHT30;58692;43.212;27.908;2023-05-19T01:04:55;16.28;72.03
71039;SHT30;58692;43.212;27.908;2023-05-19T01:07:21;16.27;72.16
71039;SHT30;58692;43.212;27.908;2023-05-19T01:09:48;16.24;72.15
71039;SHT30;58692;43.212;27.908;2023-05-19T01:12:14;16.22;72.16
71039;SHT30;58692;43.212;27.908;2023-05-19T01:14:41;16.11;73.12
71039;SHT30;58692;43.212;27.908;2023-05-19T01:19:49;16.03;73.51
71039;SHT30;58692;43.212;27.908;2023-05-19T01:22:36;16.00;74.02
71039;SHT30;58692;43.212;27.908;2023-05-19T01:25:22;16.08;73.39
71039;SHT30;58692;43.212;27.908;2023-05-19T01:30:38;15.98;74.35
71039;SHT30;58692;43.212;27.908;2023-05-19T01:33:06;16.01;74.32
71039;SHT30;58692;43.212;27.908;2023-05-19T01:35:36;16.11;74.12
71039;SHT30;58692;43.212;27.908;2023-05-19T01:38:03;15.98;74.54
71039;SHT30;58692;43.212;27.908;2023-05-19T01:40:29;15.90;75.04
71039;SHT30;58692;43.212;27.908;2023-05-19T01:42:57;15.94;75.17
71039;SHT30;58692;43.212;27.908;2023-05-19T01:45:24;15.96;75.07
71039;SHT30;58692;43.212;27.908;2023-05-19T01:47:53;15.89;75.32
71039;SHT30;58692;43.212;27.908;2023-05-19T01:50:19;15.91;75.43
71039;SHT30;58692;43.212;27.908;2023-05-19T01:52:44;15.90;75.51
71039;SHT30;58692;43.212;27.908;2023-05-19T01:55:10;15.98;75.57
71039;SHT30;58692;43.212;27.908;2023-05-19T02:06:14;16.01;76.32
71039;SHT30;58692;43.212;27.908;2023-05-19T02:09:03;15.86;77.08
71039;SHT30;58692;43.212;27.908;2023-05-19T02:11:36;15.84;77.32
71039;SHT30;58692;43.212;27.908;2023-05-19T02:14:12;15.87;77.33
71039;SHT30;58692;43.212;27.908;2023-05-19T02:16:44;15.89;77.15
71039;SHT30;58692;43.212;27.908;2023-05-19T02:19:37;15.93;77.04
71039;SHT30;58692;43.212;27.908;2023-05-19T02:22:04;15.96;77.09
71039;SHT30;58692;43.212;27.908;2023-05-19T02:24:30;15.86;77.65
71039;SHT30;58692;43.212;27.908;2023-05-19T02:26:55;15.86;77.62
71039;SHT30;58692;43.212;27.908;2023-05-19T02:29:21;15.91;77.49
71039;SHT30;58692;43.212;27.908;2023-05-19T02:31:46;15.86;77.63
71039;SHT30;58692;43.212;27.908;2023-05-19T02:34:12;15.71;78.14
71039;SHT30;58692;43.212;27.908;2023-05-19T02:36:40;15.69;78.21
71039;SHT30;58692;43.212;27.908;2023-05-19T02:39:06;15.74;78.63
71039;SHT30;58692;43.212;27.908;2023-05-19T02:41:31;15.82;78.10
71039;SHT30;58692;43.212;27.908;2023-05-19T02:43:57;15.91;77.90
71039;SHT30;58692;43.212;27.908;2023-05-19T02:46:22;15.87;77.69
71039;SHT30;58692;43.212;27.908;2023-05-19T02:48:49;15.94;77.70
71039;SHT30;58692;43.212;27.908;2023-05-19T02:51:15;15.94;77.10
71039;SHT30;58692;43.212;27.908;2023-05-19T02:53:40;16.03;76.78
71039;SHT30;58692;43.212;27.908;2023-05-19T02:56:06;16.10;76.30
71039;SHT30;58692;43.212;27.908;2023-05-19T02:58:31;16.13;76.17
71039;SHT30;58692;43.212;27.908;2023-05-19T03:00:57;16.18;75.95
71039;SHT30;58692;43.212;27.908;2023-05-19T03:03:22;16.20;76.07
71039;SHT30;58692;43.212;27.908;2023-05-19T03:05:48;16.25;75.68
71039;SHT30;58692;43.212;27.908;2023-05-19T03:08:13;16.24;76.00
71039;SHT30;58692;43.212;27.908;2023-05-19T03:10:39;16.24;75.46
71039;SHT30;58692;43.212;27.908;2023-05-19T03:13:04;16.27;75.66
71039;SHT30;58692;43.212;27.908;2023-05-19T03:15:30;16.25;75.87
71039;SHT30;58692;43.212;27.908;2023-05-19T03:17:56;16.29;76.22
71039;SHT30;58692;43.212;27.908;2023-05-19T03:20:22;16.18;77.03
71039;SHT30;58692;43.212;27.908;2023-05-19T03:22:49;16.25;76.82
71039;SHT30;58692;43.212;27.908;2023-05-19T03:25:17;16.32;76.67
71039;SHT30;58692;43.212;27.908;2023-05-19T03:27:43;16.13;77.71
71039;SHT30;58692;43.212;27.908;2023-05-19T03:30:09;16.11;77.86
71039;SHT30;58692;43.212;27.908;2023-05-19T03:32:34;16.13;77.77
71039;SHT30;58692;43.212;27.908;2023-05-19T03:35:04;16.18;76.61
71039;SHT30;58692;43.212;27.908;2023-05-19T03:37:30;16.34;76.72
71039;SHT30;58692;43.212;27.908;2023-05-19T03:39:57;16.24;77.12
71039;SHT30;58692;43.212;27.908;2023-05-19T03:42:23;16.37;76.47
71039;SHT30;58692;43.212;27.908;2023-05-19T03:44:48;16.31;77.02
71039;SHT30;58692;43.212;27.908;2023-05-19T03:47:14;16.58;76.01
71039;SHT30;58692;43.212;27.908;2023-05-19T03:49:40;16.76;75.42
71039;SHT30;58692;43.212;27.908;2023-05-19T03:52:05;16.89;74.31
71039;SHT30;58692;43.212;27.908;2023-05-19T03:54:31;16.98;74.47
71039;SHT30;58692;43.212;27.908;2023-05-19T03:56:56;17.23;73.71
71039;SHT30;58692;43.212;27.908;2023-05-19T03:59:22;17.46;72.71
71039;SHT30;58692;43.212;27.908;2023-05-19T04:01:48;17.61;72.20
71039;SHT30;58692;43.212;27.908;2023-05-19T04:04:13;17.71;71.97
71039;SHT30;58692;43.212;27.908;2023-05-19T04:06:39;18.05;71.18
71039;SHT30;58692;43.212;27.908;2023-05-19T04:09:11;18.24;70.56
71039;SHT30;58692;43.212;27.908;2023-05-19T04:11:37;18.36;70.22
71039;SHT30;58692;43.212;27.908;2023-05-19T04:14:04;18.41;70.05
71039;SHT30;58692;43.212;27.908;2023-05-19T04:16:31;18.63;68.43
71039;SHT30;58692;43.212;27.908;2023-05-19T04:18:57;18.65;68.70
71039;SHT30;58692;43.212;27.908;2023-05-19T04:21:22;18.97;67.59
71039;SHT30;58692;43.212;27.908;2023-05-19T04:23:48;19.16;66.27
71039;SHT30;58692;43.212;27.908;2023-05-19T04:26:14;18.97;66.58
71039;SHT30;58692;43.212;27.908;2023-05-19T04:28:40;18.93;66.34
71039;SHT30;58692;43.212;27.908;2023-05-19T04:31:09;19.16;65.47
71039;SHT30;58692;43.212;27.908;2023-05-19T04:33:36;19.17;66.30
71039;SHT30;58692;43.212;27.908;2023-05-19T04:36:01;19.28;65.84
71039;SHT30;58692;43.212;27.908;2023-05-19T04:38:33;19.35;66.14
71039;SHT30;58692;43.212;27.908;2023-05-19T04:41:01;19.65;65.21
71039;SHT30;58692;43.212;27.908;2023-05-19T04:43:27;19.89;64.22
71039;SHT30;58692;43.212;27.908;2023-05-19T04:45:53;20.12;62.74
71039;SHT30;58692;43.212;27.908;2023-05-19T04:48:19;20.22;61.62
71039;SHT30;58692;43.212;27.908;2023-05-19T04:50:46;20.47;60.70
71039;SHT30;58692;43.212;27.908;2023-05-19T04:53:13;20.64;60.22
71039;SHT30;58692;43.212;27.908;2023-05-19T04:55:39;20.66;59.90
71039;SHT30;58692;43.212;27.908;2023-05-19T04:58:04;20.56;60.26
71039;SHT30;58692;43.212;27.908;2023-05-19T05:00:30;20.71;59.75
71039;SHT30;58692;43.212;27.908;2023-05-19T05:02:56;20.71;59.96
71039;SHT30;58692;43.212;27.908;2023-05-19T05:05:22;21.05;59.07
71039;SHT30;58692;43.212;27.908;2023-05-19T05:07:48;20.84;59.28
71039;SHT30;58692;43.212;27.908;2023-05-19T05:10:14;20.46;59.81
71039;SHT30;58692;43.212;27.908;2023-05-19T05:12:40;20.37;60.53
71039;SHT30;58692;43.212;27.908;2023-05-19T05:15:06;20.09;61.04
71039;SHT30;58692;43.212;27.908;2023-05-19T05:17:33;20.12;60.88
71039;SHT30;58692;43.212;27.908;2023-05-19T05:20:00;20.40;60.19
71039;SHT30;58692;43.212;27.908;2023-05-19T05:22:26;20.85;58.66
71039;SHT30;58692;43.212;27.908;2023-05-19T05:24:52;21.32;57.35
71039;SHT30;58692;43.212;27.908;2023-05-19T05:27:17;21.39;56.54
71039;SHT30;58692;43.212;27.908;2023-05-19T05:29:43;21.51;55.63
71039;SHT30;58692;43.212;27.908;2023-05-19T05:32:08;21.51;55.43
71039;SHT30;58692;43.212;27.908;2023-05-19T05:34:34;21.58;55.62
71039;SHT30;58692;43.212;27.908;2023-05-19T05:37:01;22.13;54.40
71039;SHT30;58692;43.212;27.908;2023-05-19T05:39:27;22.63;53.40
71039;SHT30;58692;43.212;27.908;2023-05-19T05:41:52;22.80;52.76
71039;SHT30;58692;43.212;27.908;2023-05-19T05:44:18;22.98;52.22
71039;SHT30;58692;43.212;27.908;2023-05-19T05:46:44;23.39;51.17
71039;SHT30;58692;43.212;27.908;2023-05-19T05:49:09;23.56;50.62
71039;SHT30;58692;43.212;27.908;2023-05-19T05:51:37;23.67;50.64
71039;SHT30;58692;43.212;27.908;2023-05-19T05:54:05;23.76;50.14
71039;SHT30;58692;43.212;27.908;2023-05-19T05:56:31;23.93;49.54
71039;SHT30;58692;43.212;27.908;2023-05-19T05:58:58;24.20;49.00
71039;SHT30;58692;43.212;27.908;2023-05-19T06:01:24;24.20;48.37
71039;SHT30;58692;43.212;27.908;2023-05-19T06:03:50;23.93;48.19
71039;SHT30;58692;43.212;27.908;2023-05-19T06:06:15;24.13;47.61
71039;SHT30;58692;43.212;27.908;2023-05-19T06:08:41;24.24;47.02
71039;SHT30;58692;43.212;27.908;2023-05-19T06:11:07;24.24;47.30
71039;SHT30;58692;43.212;27.908;2023-05-19T06:13:34;24.23;46.64
71039;SHT30;58692;43.212;27.908;2023-05-19T06:16:00;24.07;46.95
71039;SHT30;58692;43.212;27.908;2023-05-19T06:18:26;24.07;46.76
71039;SHT30;58692;43.212;27.908;2023-05-19T06:20:52;24.57;46.42
71039;SHT30;58692;43.212;27.908;2023-05-19T06:23:17;24.58;46.31
71039;SHT30;58692;43.212;27.908;2023-05-19T06:25:43;24.89;45.77
71039;SHT30;58692;43.212;27.908;2023-05-19T06:28:08;24.74;45.90
71039;SHT30;58692;43.212;27.908;2023-05-19T06:30:34;24.94;45.94
71039;SHT30;58692;43.212;27.908;2023-05-19T06:33:01;25.23;45.43
71039;SHT30;58692;43.212;27.908;2023-05-19T06:35:27;25.35;45.62
71039;SHT30;58692;43.212;27.908;2023-05-19T06:37:53;25.56;45.09
71039;SHT30;58692;43.212;27.908;2023-05-19T06:40:20;25.88;44.48
71039;SHT30;58692;43.212;27.908;2023-05-19T06:42:46;26.28;43.81
71039;SHT30;58692;43.212;27.908;2023-05-19T06:45:12;26.38;43.57
71039;SHT30;58692;43.212;27.908;2023-05-19T06:47:39;26.16;43.78
71039;SHT30;58692;43.212;27.908;2023-05-19T06:50:07;26.20;44.04
71039;SHT30;58692;43.212;27.908;2023-05-19T06:52:33;26.42;43.63
71039;SHT30;58692;43.212;27.908;2023-05-19T06:54:59;26.31;43.94
71039;SHT30;58692;43.212;27.908;2023-05-19T06:57:24;26.68;43.10
71039;SHT30;58692;43.212;27.908;2023-05-19T06:59:50;26.52;43.49
71039;SHT30;58692;43.212;27.908;2023-05-19T07:02:15;26.71;42.35
71039;SHT30;58692;43.212;27.908;2023-05-19T07:04:41;26.82;42.54
71039;SHT30;58692;43.212;27.908;2023-05-19T07:07:07;27.03;42.01
71039;SHT30;58692;43.212;27.908;2023-05-19T07:09:33;27.03;42.36
71039;SHT30;58692;43.212;27.908;2023-05-19T07:11:58;27.22;42.30
71039;SHT30;58692;43.212;27.908;2023-05-19T07:14:24;27.32;41.98
71039;SHT30;58692;43.212;27.908;2023-05-19T07:16:49;27.10;41.72
71039;SHT30;58692;43.212;27.908;2023-05-19T07:19:16;26.73;42.48
71039;SHT30;58692;43.212;27.908;2023-05-19T07:21:44;27.27;41.91
71039;SHT30;58692;43.212;27.908;2023-05-19T07:24:10;27.22;41.40
71039;SHT30;58692;43.212;27.908;2023-05-19T07:26:35;27.02;41.60
71039;SHT30;58692;43.212;27.908;2023-05-19T07:29:01;27.40;41.76
71039;SHT30;58692;43.212;27.908;2023-05-19T07:31:26;27.39;40.99
71039;SHT30;58692;43.212;27.908;2023-05-19T07:33:52;27.83;40.67
71039;SHT30;58692;43.212;27.908;2023-05-19T07:36:17;27.71;40.76
71039;SHT30;58692;43.212;27.908;2023-05-19T07:38:44;28.07;40.40
71039;SHT30;58692;43.212;27.908;2023-05-19T07:41:10;28.02;40.09
71039;SHT30;58692;43.212;27.908;2023-05-19T07:43:36;28.52;39.50
71039;SHT30;58692;43.212;27.908;2023-05-19T07:46:02;28.60;38.77
71039;SHT30;58692;43.212;27.908;2023-05-19T07:48:27;28.86;38.52
71039;SHT30;58692;43.212;27.908;2023-05-19T07:50:53;29.17;38.34
71039;SHT30;58692;43.212;27.908;2023-05-19T07:53:19;28.92;38.26
71039;SHT30;58692;43.212;27.908;2023-05-19T07:55:47;28.62;38.30
71039;SHT30;58692;43.212;27.908;2023-05-19T07:58:12;28.68;37.99
71039;SHT30;58692;43.212;27.908;2023-05-19T08:00:38;28.99;38.10
71039;SHT30;58692;43.212;27.908;2023-05-19T08:03:05;29.85;36.52
71039;SHT30;58692;43.212;27.908;2023-05-19T08:05:33;28.99;36.64
71039;SHT30;58692;43.212;27.908;2023-05-19T08:07:59;29.24;36.19
71039;SHT30;58692;43.212;27.908;2023-05-19T08:10:24;28.99;37.17
71039;SHT30;58692;43.212;27.908;2023-05-19T08:12:50;27.95;39.01
71039;SHT30;58692;43.212;27.908;2023-05-19T08:15:15;28.45;38.72
71039;SHT30;58692;43.212;27.908;2023-05-19T08:17:41;27.87;39.03
71039;SHT30;58692;43.212;27.908;2023-05-19T08:20:06;28.02;39.47
71039;SHT30;58692;43.212;27.908;2023-05-19T08:22:34;27.78;40.66
71039;SHT30;58692;43.212;27.908;2023-05-19T08:25:00;28.11;40.75
71039;SHT30;58692;43.212;27.908;2023-05-19T08:27:25;28.60;39.77
71039;SHT30;58692;43.212;27.908;2023-05-19T08:29:51;28.60;39.32
71039;SHT30;58692;43.212;27.908;2023-05-19T08:32:18;28.75;39.19
71039;SHT30;58692;43.212;27.908;2023-05-19T08:34:44;29.51;37.99
71039;SHT30;58692;43.212;27.908;2023-05-19T08:37:09;29.26;38.67
71039;SHT30;58692;43.212;27.908;2023-05-19T08:39:36;29.93;37.28
71039;SHT30;58692;43.212;27.908;2023-05-19T08:42:01;29.17;38.21
71039;SHT30;58692;43.212;27.908;2023-05-19T08:44:27;29.53;37.91
71039;SHT30;58692;43.212;27.908;2023-05-19T08:46:54;29.92;37.57
71039;SHT30;58692;43.212;27.908;2023-05-19T08:49:25;29.55;37.86
71039;SHT30;58692;43.212;27.908;2023-05-19T08:54:39;29.55;37.59
71039;SHT30;58692;43.212;27.908;2023-05-19T08:57:06;29.30;37.59
71039;SHT30;58692;43.212;27.908;2023-05-19T08:59:32;28.60;38.08
71039;SHT30;58692;43.212;27.908;2023-05-19T09:01:58;29.47;37.21
71039;SHT30;58692;43.212;27.908;2023-05-19T09:04:24;28.63;37.50
71039;SHT30;58692;43.212;27.908;2023-05-19T09:06:52;29.47;37.19
71039;SHT30;58692;43.212;27.908;2023-05-19T09:09:17;30.01;35.59
71039;SHT30;58692;43.212;27.908;2023-05-19T09:11:45;29.86;36.23
71039;SHT30;58692;43.212;27.908;2023-05-19T09:14:11;29.64;36.73
71039;SHT30;58692;43.212;27.908;2023-05-19T09:16:36;29.88;35.76
71039;SHT30;58692;43.212;27.908;2023-05-19T09:19:03;29.82;38.86
71039;SHT30;58692;43.212;27.908;2023-05-19T09:21:29;28.41;42.71
71039;SHT30;58692;43.212;27.908;2023-05-19T09:23:57;27.51;45.02
71039;SHT30;58692;43.212;27.908;2023-05-19T09:26:23;27.32;45.54
71039;SHT30;58692;43.212;27.908;2023-05-19T09:28:49;26.85;46.15
71039;SHT30;58692;43.212;27.908;2023-05-19T09:31:15;27.22;46.58
71039;SHT30;58692;43.212;27.908;2023-05-19T09:33:43;27.40;45.75
71039;SHT30;58692;43.212;27.908;2023-05-19T09:36:09;27.34;46.05
71039;SHT30;58692;43.212;27.908;2023-05-19T09:38:36;27.71;45.90
71039;SHT30;58692;43.212;27.908;2023-05-19T09:41:04;27.33;46.26
71039;SHT30;58692;43.212;27.908;2023-05-19T09:43:30;27.98;46.01
71039;SHT30;58692;43.212;27.908;2023-05-19T09:46:06;27.13;47.76
71039;SHT30;58692;43.212;27.908;2023-05-19T09:48:32;27.04;48.22
71039;SHT30;58692;43.212;27.908;2023-05-19T09:51:00;26.92;49.19
71039;SHT30;58692;43.212;27.908;2023-05-19T09:53:25;26.30;50.30
71039;SHT30;58692;43.212;27.908;2023-05-19T09:55:54;26.20;50.27
71039;SHT30;58692;43.212;27.908;2023-05-19T09:58:22;24.79;53.68
71039;SHT30;58692;43.212;27.908;2023-05-19T10:00:49;25.59;51.62
71039;SHT30;58692;43.212;27.908;2023-05-19T10:03:15;24.99;53.82
71039;SHT30;58692;43.212;27.908;2023-05-19T10:05:42;25.14;53.63
71039;SHT30;58692;43.212;27.908;2023-05-19T10:08:08;25.69;52.57
71039;SHT30;58692;43.212;27.908;2023-05-19T10:10:35;25.96;52.16
71039;SHT30;58692;43.212;27.908;2023-05-19T10:13:02;27.19;49.59
71039;SHT30;58692;43.212;27.908;2023-05-19T10:15:29;27.06;48.05
71039;SHT30;58692;43.212;27.908;2023-05-19T10:17:55;27.26;46.66
71039;SHT30;58692;43.212;27.908;2023-05-19T10:20:21;27.80;46.72
71039;SHT30;58692;43.212;27.908;2023-05-19T10:22:48;28.14;45.04
71039;SHT30;58692;43.212;27.908;2023-05-19T10:25:14;27.71;45.73
71039;SHT30;58692;43.212;27.908;2023-05-19T10:27:48;28.09;42.99
71039;SHT30;58692;43.212;27.908;2023-05-19T10:30:21;28.92;40.12
71039;SHT30;58692;43.212;27.908;2023-05-19T10:32:50;28.66;43.36
71039;SHT30;58692;43.212;27.908;2023-05-19T10:41:06;28.80;42.07
71039;SHT30;58692;43.212;27.908;2023-05-19T10:43:50;28.31;43.56
71039;SHT30;58692;43.212;27.908;2023-05-19T10:46:22;28.75;42.14
71039;SHT30;58692;43.212;27.908;2023-05-19T10:48:48;28.60;42.45
71039;SHT30;58692;43.212;27.908;2023-05-19T10:51:14;28.97;39.16
71039;SHT30;58692;43.212;27.908;2023-05-19T10:53:40;28.52;40.51
71039;SHT30;58692;43.212;27.908;2023-05-19T10:56:10;27.74;43.86
71039;SHT30;58692;43.212;27.908;2023-05-19T10:58:38;27.53;44.64
71039;SHT30;58692;43.212;27.908;2023-05-19T11:01:08;27.03;45.55
71039;SHT30;58692;43.212;27.908;2023-05-19T11:03:52;28.02;44.21
71039;SHT30;58692;43.212;27.908;2023-05-19T11:06:29;27.67;44.25
71039;SHT30;58692;43.212;27.908;2023-05-19T11:11:23;27.94;44.19
71039;SHT30;58692;43.212;27.908;2023-05-19T11:13:50;27.73;44.57
71039;SHT30;58692;43.212;27.908;2023-05-19T11:16:18;28.05;43.86
71039;SHT30;58692;43.212;27.908;2023-05-19T11:18:47;28.17;43.38
71039;SHT30;58692;43.212;27.908;2023-05-19T11:21:14;28.26;42.86
71039;SHT30;58692;43.212;27.908;2023-05-19T11:23:39;28.38;42.88
71039;SHT30;58692;43.212;27.908;2023-05-19T11:26:06;27.88;43.83
71039;SHT30;58692;43.212;27.908;2023-05-19T11:28:36;28.15;44.28
71039;SHT30;58692;43.212;27.908;2023-05-19T11:31:03;27.65;44.40
71039;SHT30;58692;43.212;27.908;2023-05-19T11:33:32;27.51;45.58
71039;SHT30;58692;43.212;27.908;2023-05-19T11:35:59;27.44;46.74
71039;SHT30;58692;43.212;27.908;2023-05-19T11:38:26;26.93;47.92
71039;SHT30;58692;43.212;27.908;2023-05-19T11:40:52;25.97;49.77
71039;SHT30;58692;43.212;27.908;2023-05-19T11:43:18;26.82;48.41
71039;SHT30;58692;43.212;27.908;2023-05-19T11:45:46;26.48;49.86
71039;SHT30;58692;43.212;27.908;2023-05-19T11:48:12;26.51;50.38
71039;SHT30;58692;43.212;27.908;2023-05-19T11:50:41;26.45;50.64
71039;SHT30;58692;43.212;27.908;2023-05-19T11:53:10;26.10;52.07
71039;SHT30;58692;43.212;27.908;2023-05-19T11:55:41;25.98;52.31
71039;SHT30;58692;43.212;27.908;2023-05-19T11:58:08;26.02;52.40
71039;SHT30;58692;43.212;27.908;2023-05-19T12:00:39;25.93;52.02
71039;SHT30;58692;43.212;27.908;2023-05-19T12:03:05;25.63;52.66
71039;SHT30;58692;43.212;27.908;2023-05-19T12:05:30;25.81;52.75
71039;SHT30;58692;43.212;27.908;2023-05-19T12:07:56;25.73;52.45
71039;SHT30;58692;43.212;27.908;2023-05-19T12:10:25;25.11;53.74
71039;SHT30;58692;43.212;27.908;2023-05-19T12:12:52;24.38;55.22
71039;SHT30;58692;43.212;27.908;2023-05-19T12:15:22;24.27;55.21
71039;SHT30;58692;43.212;27.908;2023-05-19T12:17:49;24.04;56.00
71039;SHT30;58692;43.212;27.908;2023-05-19T12:20:16;23.87;56.23
71039;SHT30;58692;43.212;27.908;2023-05-19T12:22:42;23.56;56.43
71039;SHT30;58692;43.212;27.908;2023-05-19T12:25:08;23.50;56.73
71039;SHT30;58692;43.212;27.908;2023-05-19T12:27:35;23.69;54.68
71039;SHT30;58692;43.212;27.908;2023-05-19T12:30:03;23.77;54.58
71039;SHT30;58692;43.212;27.908;2023-05-19T12:32:28;23.70;54.25
71039;SHT30;58692;43.212;27.908;2023-05-19T12:34:55;23.69;54.42
71039;SHT30;58692;43.212;27.908;2023-05-19T12:37:24;24.03;54.24
71039;SHT30;58692;43.212;27.908;2023-05-19T12:39:50;23.99;52.04
71039;SHT30;58692;43.212;27.908;2023-05-19T12:42:15;24.09;53.52
71039;SHT30;58692;43.212;27.908;2023-05-19T12:44:43;24.30;52.29
71039;SHT30;58692;43.212;27.908;2023-05-19T12:47:11;24.28;51.17
71039;SHT30;58692;43.212;27.908;2023-05-19T12:49:52;24.30;52.50
71039;SHT30;58692;43.212;27.908;2023-05-19T12:52:18;24.31;51.78
71039;SHT30;58692;43.212;27.908;2023-05-19T12:54:47;24.40;48.40
71039;SHT30;58692;43.212;27.908;2023-05-19T12:57:15;24.82;48.35
71039;SHT30;58692;43.212;27.908;2023-05-19T12:59:41;24.89;48.59
71039;SHT30;58692;43.212;27.908;2023-05-19T13:02:07;25.12;42.56
71039;SHT30;58692;43.212;27.908;2023-05-19T13:04:32;25.33;41.93
71039;SHT30;58692;43.212;27.908;2023-05-19T13:06:58;25.49;42.14
71039;SHT30;58692;43.212;27.908;2023-05-19T13:09:23;25.57;39.92
71039;SHT30;58692;43.212;27.908;2023-05-19T13:11:49;25.73;40.95
71039;SHT30;58692;43.212;27.908;2023-05-19T13:14:17;25.86;39.80
71039;SHT30;58692;43.212;27.908;2023-05-19T13:16:44;25.96;39.49
71039;SHT30;58692;43.212;27.908;2023-05-19T13:19:13;26.04;39.21
71039;SHT30;58692;43.212;27.908;2023-05-19T13:21:38;25.97;39.23
71039;SHT30;58692;43.212;27.908;2023-05-19T13:24:04;25.87;39.51
71039;SHT30;58692;43.212;27.908;2023-05-19T13:26:30;26.08;39.57
71039;SHT30;58692;43.212;27.908;2023-05-19T13:28:55;26.11;39.10
71039;SHT30;58692;43.212;27.908;2023-05-19T13:31:21;26.00;38.92
71039;SHT30;58692;43.212;27.908;2023-05-19T13:33:46;25.96;38.69
71039;SHT30;58692;43.212;27.908;2023-05-19T13:36:12;25.88;38.77
71039;SHT30;58692;43.212;27.908;2023-05-19T13:38:37;25.94;38.48
71039;SHT30;58692;43.212;27.908;2023-05-19T13:41:04;26.07;38.81
71039;SHT30;58692;43.212;27.908;2023-05-19T13:43:29;26.13;38.77
71039;SHT30;58692;43.212;27.908;2023-05-19T13:45:58;25.79;37.86
71039;SHT30;58692;43.212;27.908;2023-05-19T13:48:23;25.93;38.51
71039;SHT30;58692;43.212;27.908;2023-05-19T13:50:48;25.87;37.96
71039;SHT30;58692;43.212;27.908;2023-05-19T13:53:16;25.63;38.23
71039;SHT30;58692;43.212;27.908;2023-05-19T13:55:42;25.69;37.75
71039;SHT30;58692;43.212;27.908;2023-05-19T13:58:07;25.67;37.30
71039;SHT30;58692;43.212;27.908;2023-05-19T14:00:35;25.57;37.37
71039;SHT30;58692;43.212;27.908;2023-05-19T14:03:01;25.67;37.51
71039;SHT30;58692;43.212;27.908;2023-05-19T14:05:26;25.53;37.53
71039;SHT30;58692;43.212;27.908;2023-05-19T14:07:53;25.59;37.61
71039;SHT30;58692;43.212;27.908;2023-05-19T14:10:19;25.45;37.64
71039;SHT30;58692;43.212;27.908;2023-05-19T14:12:45;25.53;37.61
71039;SHT30;58692;43.212;27.908;2023-05-19T14:15:11;25.56;37.43
71039;SHT30;58692;43.212;27.908;2023-05-19T14:17:36;25.45;37.24
71039;SHT30;58692;43.212;27.908;2023-05-19T14:20:02;25.57;37.39
71039;SHT30;58692;43.212;27.908;2023-05-19T14:22:28;25.47;37.06
71039;SHT30;58692;43.212;27.908;2023-05-19T14:24:53;25.49;37.67
71039;SHT30;58692;43.212;27.908;2023-05-19T14:27:19;25.46;37.42
71039;SHT30;58692;43.212;27.908;2023-05-19T14:29:44;25.39;36.75
71039;SHT30;58692;43.212;27.908;2023-05-19T14:32:12;25.43;37.50
71039;SHT30;58692;43.212;27.908;2023-05-19T14:34:38;25.40;37.24
71039;SHT30;58692;43.212;27.908;2023-05-19T14:37:03;25.36;37.15
71039;SHT30;58692;43.212;27.908;2023-05-19T14:39:29;25.25;37.67
71039;SHT30;58692;43.212;27.908;2023-05-19T14:41:56;25.29;37.28
71039;SHT30;58692;43.212;27.908;2023-05-19T14:44:23;25.16;37.83
71039;SHT30;58692;43.212;27.908;2023-05-19T14:46:49;25.30;37.99
71039;SHT30;58692;43.212;27.908;2023-05-19T14:49:14;25.30;37.77
71039;SHT30;58692;43.212;27.908;2023-05-19T14:51:40;25.30;37.87
71039;SHT30;58692;43.212;27.908;2023-05-19T14:54:05;25.42;37.95
71039;SHT30;58692;43.212;27.908;2023-05-19T14:56:31;25.46;37.47
71039;SHT30;58692;43.212;27.908;2023-05-19T14:58:56;25.40;37.55
71039;SHT30;58692;43.212;27.908;2023-05-19T15:01:23;25.35;37.76
71039;SHT30;58692;43.212;27.908;2023-05-19T15:03:48;25.37;37.94
71039;SHT30;58692;43.212;27.908;2023-05-19T15:06:13;25.40;37.89
71039;SHT30;58692;43.212;27.908;2023-05-19T15:11:40;25.46;37.43
71039;SHT30;58692;43.212;27.908;2023-05-19T15:14:05;25.47;37.64
71039;SHT30;58692;43.212;27.908;2023-05-19T15:16:31;25.40;37.57
71039;SHT30;58692;43.212;27.908;2023-05-19T15:18:56;25.36;37.80
71039;SHT30;58692;43.212;27.908;2023-05-19T15:21:22;25.39;37.93
71039;SHT30;58692;43.212;27.908;2023-05-19T15:23:47;25.35;37.82
71039;SHT30;58692;43.212;27.908;2023-05-19T15:26:13;25.25;37.32
71039;SHT30;58692;43.212;27.908;2023-05-19T15:28:38;25.25;37.46
71039;SHT30;58692;43.212;27.908;2023-05-19T15:31:05;25.25;37.79
71039;SHT30;58692;43.212;27.908;2023-05-19T15:33:30;25.26;37.49
71039;SHT30;58692;43.212;27.908;2023-05-19T15:35:56;25.33;37.69
71039;SHT30;58692;43.212;27.908;2023-05-19T15:38:22;25.23;37.97
71039;SHT30;58692;43.212;27.908;2023-05-19T15:40:48;25.35;37.56